Flight Track Log - Related Links

Times and Time Zones

All times are in EDT time to prevent confusion due to time zone crossing. See the TRS151 flight status page for this flight to view local times or setup timezone preferences in your user account.

Time Position Orientation Groundspeed Altitude Reporting Facility
EDT Latitude Longitude Course Direction KTS MPH feet Rate Location/Type
01:48PM 38.8167 -77.0333 165° South 151 174 1,500  Level Potomac TRACON
01:49PM 38.7667 -77.0167 165° South 229 264 2,500 1,488 Climbing Potomac TRACON
01:50PM 38.7333 -77.0833 237° Southwest 241 277 4,500 2,231 Climbing Potomac TRACON
01:51PM 38.7167 -77.1833 258° West 243 280 7,000 2,450 Climbing Potomac TRACON
01:52PM 38.7167 -77.2500 270° West 245 282 9,400 2,100 Climbing Potomac TRACON
01:53PM 38.7667 -77.2833 333° Northwest 270 311 11,200 2,150 Climbing Potomac TRACON
01:54PM 38.8500 -77.3167 343° North 262 302 13,700 2,018 Climbing Potomac TRACON
01:55PM 38.8978 -77.3247 353° North 271 312 14,900 1,737 Climbing Washington Center
01:56PM 38.9725 -77.3428 349° North 271 312 17,000 1,016 Climbing Washington Center
01:57PM 39.0631 -77.3589 352° North 275 316 17,000  Level Washington Center
01:58PM 39.1417 -77.3586 360° North 281 323 17,000  Level Washington Center
01:59PM 39.2219 -77.3567 North 283 326 17,000  Level Washington Center
02:00PM 39.2808 -77.4058 327° Northwest 274 315 17,000 912 Level Washington Center
02:01PM 39.3325 -77.4917 308° West 301 346 18,900 2,516 Climbing Washington Center
02:02PM 39.4025 -77.5844 314° West 305 351 22,200 2,274 Climbing Washington Center
02:03PM 39.4700 -77.6531 322° Northwest 315 362 23,600 1,082 Climbing Washington Center
02:04PM 39.5167 -77.7567 300° West 328 377 24,400 720 Climbing Washington Center
02:05PM 39.5681 -77.8697 301° West 356 410 25,100 1,009 Climbing Washington Center
02:06PM 39.6106 -77.9661 300° West 374 430 26,300 1,784 Climbing Cleveland Center
02:07PM 39.6711 -78.1050 300° West 371 427 28,400 1,707 Climbing Cleveland Center
02:08PM 39.7211 -78.2158 300° West 360 414 29,800 1,171 Climbing Cleveland Center
02:09PM 39.7700 -78.3289 299° West 360 414 30,800 1,065 Climbing Cleveland Center
02:10PM 39.8225 -78.4453 300° West 359 413 32,000 581 Climbing Cleveland Center
02:11PM 39.8722 -78.5603 299° West 363 418 32,000  Level Cleveland Center
02:12PM 39.9225 -78.6742 300° West 363 418 32,000  Level Cleveland Center
02:13PM 39.9722 -78.7858 300° West 363 418 32,000  Level Cleveland Center
02:14PM 40.0289 -78.9192 299° West 357 411 32,000  Level Cleveland Center
02:15PM 40.0775 -79.0303 300° West 355 409 32,000  Level Cleveland Center
02:16PM 40.1236 -79.1389 299° West 347 399 32,000  Level Cleveland Center
02:17PM 40.1703 -79.2486 299° West 346 398 32,000  Level Cleveland Center
02:19PM 40.2156 -79.3525 300° West 342 394 32,000  Level Cleveland Center
02:20PM 40.2606 -79.4608 299° West 341 392 32,000  Level Cleveland Center
02:21PM 40.3058 -79.5667 299° West 339 390 32,000  Level Cleveland Center
02:22PM 40.3611 -79.6978 299° West 340 391 32,000  Level Cleveland Center
02:23PM 40.4075 -79.8081 299° West 342 394 32,000  Level Cleveland Center
02:24PM 40.4533 -79.9169 299° West 344 396 32,000  Level Cleveland Center
02:25PM 40.5017 -80.0303 299° West 346 398 32,000  Level Cleveland Center
02:26PM 40.5472 -80.1411 298° West 346 398 32,000  Level Cleveland Center
02:27PM 40.5931 -80.2517 299° West 346 398 32,000  Level Cleveland Center
02:28PM 40.6400 -80.3650 299° West 347 399 32,000  Level Cleveland Center
02:29PM 40.6858 -80.4781 298° West 347 399 32,000  Level Cleveland Center
02:30PM 40.7408 -80.6108 299° West 347 399 32,000  Level Cleveland Center
02:31PM 40.7839 -80.7133 299° West 348 400 32,000  Level Cleveland Center
02:32PM 40.8322 -80.8236 300° West 349 402 32,000  Level Cleveland Center
02:33PM 40.8956 -80.9225 310° West 352 405 32,000  Level Cleveland Center
02:34PM 40.9550 -81.0236 308° West 352 405 32,000  Level Cleveland Center
02:35PM 41.0242 -81.1389 309° West 351 404 32,000  Level Cleveland Center
02:36PM 41.0850 -81.2414 308° West 351 404 32,000  Level Cleveland Center
02:37PM 41.1458 -81.3442 308° West 351 404 32,000  Level Cleveland Center
02:38PM 41.2092 -81.4514 308° West 354 407 32,000  Level Cleveland Center
02:39PM 41.2700 -81.5542 308° West 354 407 32,000  Level Cleveland Center
02:40PM 41.3297 -81.6572 308° West 354 407 32,000  Level Cleveland Center
02:41PM 41.3967 -81.7706 308° West 354 407 32,000  Level Cleveland Center
02:42PM 41.4575 -81.8750 308° West 354 407 32,000  Level Cleveland Center
02:43PM 41.5186 -81.9786 308° West 354 407 32,000  Level Cleveland Center
02:44PM 41.5800 -82.0844 308° West 354 407 32,000  Level Cleveland Center
02:45PM 41.6400 -82.1894 307° West 355 409 32,000  Level Cleveland Center
02:46PM 41.7086 -82.3089 308° West 355 409 32,000  Level Cleveland Center
02:47PM 41.7681 -82.4133 307° West 355 409 32,000  Level Cleveland Center
02:48PM 41.8286 -82.5189 308° West 355 409 32,000  Level Cleveland Center
02:49PM 41.8894 -82.6225 308° West 354 407 32,000  Level Cleveland Center
02:50PM 41.9486 -82.7281 307° West 355 409 32,000  Level Cleveland Center
02:51PM 42.0083 -82.8333 307° West 355 409 32,000  Level Cleveland Center
02:52PM 42.0672 -82.9383 307° West 355 409 32,000  Level Cleveland Center
02:53PM 42.1267 -83.0444 307° West 355 409 32,000  Level Cleveland Center
02:54PM 42.1972 -83.1719 307° West 355 409 32,000  Level Cleveland Center
02:55PM 42.2533 -83.2725 307° West 355 409 32,000  Level Cleveland Center
02:56PM 42.3131 -83.3806 307° West 355 409 32,000  Level Cleveland Center
02:57PM 42.3719 -83.4869 307° West 353 406 32,000  Level Cleveland Center
02:59PM 42.4411 -83.6100 307° West 352 405 32,000  Level Cleveland Center
03:00PM 42.4989 -83.7164 306° West 352 405 32,000  Level Cleveland Center
03:01PM 42.5569 -83.8214 307° West 351 404 32,000  Level Cleveland Center
03:02PM 42.6161 -83.9294 307° West 354 407 32,000  Level Cleveland Center
03:03PM 42.6742 -84.0364 306° West 354 407 32,000  Level Cleveland Center
03:04PM 42.7331 -84.1444 307° West 354 407 32,000  Level Cleveland Center
03:05PM 42.7789 -84.2611 298° West 357 411 32,000  Level Cleveland Center
03:06PM 42.8114 -84.4019 288° West 359 413 32,000  Level Cleveland Center
03:07PM 42.8414 -84.5314 288° West 358 412 32,000  Level Cleveland Center
03:08PM 42.8706 -84.6603 287° West 358 412 32,000  Level Cleveland Center
03:09PM 42.8986 -84.7878 287° West 356 410 32,000  Level Cleveland Center
03:10PM 42.9331 -84.9428 287° West 357 411 32,000  Level Cleveland Center
03:11PM 42.9617 -85.0714 287° West 357 411 32,000 -49 Level Cleveland Center
03:12PM 42.9889 -85.2006 286° West 356 410 31,900 -293 Descending Cleveland Center
03:13PM 43.0167 -85.3275 287° West 352 405 31,400 -488 Descending Cleveland Center
03:14PM 43.0450 -85.4583 287° West 358 412 30,900 -732 Descending Cleveland Center
03:15PM 43.0731 -85.5886 286° West 358 412 29,900 -968 Descending Cleveland Center
03:16PM 43.1003 -85.7167 286° West 355 409 28,900 -1,073 Descending Cleveland Center
03:17PM 43.1322 -85.8642 287° West 354 407 27,700 -1,073 Descending Cleveland Center
03:18PM 43.1597 -85.9939 286° West 354 407 26,700 -1,113 Descending Cleveland Center
03:19PM 43.1675 -86.1247 275° West 358 412 25,400 -1,610 Descending Cleveland Center
03:20PM 43.1658 -86.2556 269° West 350 403 23,400 -2,072 Descending Cleveland Center
03:21PM 43.1631 -86.4378 269° West 345 397 20,600 -2,057 Descending Chicago Center
03:22PM 43.1611 -86.5683 269° West 345 397 18,600 -1,887 Descending Chicago Center
03:23PM 43.1583 -86.6944 268° West 333 383 16,700 -1,902 Descending Chicago Center
03:24PM 43.1558 -86.8142 268° West 318 366 14,700 -1,317 Descending Chicago Center
03:25PM 43.1533 -86.9350 268° West 319 367 14,000 -339 Descending Chicago Center
03:27PM 43.1508 -87.0825 269° West 323 372 14,000 -390 Level Chicago Center
03:28PM 43.1475 -87.2056 268° West 322 371 13,200 -1,171 Descending Chicago Center
03:29PM 43.1439 -87.3244 268° West 316 364 11,600 -1,258 Descending Chicago Center
03:30PM 43.1372 -87.4436 266° West 278 320 10,600 -829 Descending Chicago Center
03:31PM 43.1289 -87.5397 263° West 258 297 9,900 -1,220 Descending Chicago Center
03:32PM 43.1056 -87.6342 251° West 260 299 8,100 -1,403 Descending Chicago Center
03:33PM 43.0789 -87.7258 248° West 261 300 7,000 -537 Descending Chicago Center
03:34PM 43.0506 -87.8178 247° West 261 300 7,000 -488 Level Chicago Center
03:35PM 43.0225 -87.9083 247° West 260 299 6,000 -1,171 Descending Chicago Center
03:36PM 42.9964 -88.0022 249° West 260 299 4,600 -1,415 Descending Chicago Center
03:37PM 42.9669 -88.0797 243° Southwest 261 300 3,100 -968 Descending Chicago Center
03:38PM 42.9158 -88.0683 171° South 223 257 2,600 -488 Descending Chicago Center
03:39PM 42.9156 -88.0086 90° East 160 184 2,100 -537 Descending Chicago Center
03:40PM 42.9272 -87.9642 70° East 139 160 1,500 -581 Descending Chicago Center
03:43PM 42.9333 -87.8833 83° East  Level FlightAware Approximate

Login

Don't have an account? Register now (free) for customized features, flight alerts, and more!